sensor_id;sensor_type;location;lat;lon;timestamp;temperature;humidity
57218;DHT22;43078;52.972;6.482;2023-02-15T00:02:03;4.70;99.90
57218;DHT22;43078;52.972;6.482;2023-02-15T00:04:45;4.60;99.90
57218;DHT22;43078;52.972;6.482;2023-02-15T00:07:19;4.60;99.90
57218;DHT22;43078;52.972;6.482;2023-02-15T00:09:46;4.50;99.90
57218;DHT22;43078;52.972;6.482;2023-02-15T00:12:12;4.50;99.90
57218;DHT22;43078;52.972;6.482;2023-02-15T00:14:44;4.50;99.90
57218;DHT22;43078;52.972;6.482;2023-02-15T00:17:24;4.50;99.90
57218;DHT22;43078;52.972;6.482;2023-02-15T00:19:54;4.40;99.90
57218;DHT22;43078;52.972;6.482;2023-02-15T00:22:29;4.40;99.90
57218;DHT22;43078;52.972;6.482;2023-02-15T00:25:06;4.50;99.90
57218;DHT22;43078;52.972;6.482;2023-02-15T00:27:43;4.40;99.90
57218;DHT22;43078;52.972;6.482;2023-02-15T00:30:24;4.40;99.90
57218;DHT22;43078;52.972;6.482;2023-02-15T00:32:58;4.40;99.90
57218;DHT22;43078;52.972;6.482;2023-02-15T00:35:29;4.30;99.90
57218;DHT22;43078;52.972;6.482;2023-02-15T00:38:04;4.30;99.90
57218;DHT22;43078;52.972;6.482;2023-02-15T00:40:33;4.30;99.90
57218;DHT22;43078;52.972;6.482;2023-02-15T00:43:08;4.20;99.90
57218;DHT22;43078;52.972;6.482;2023-02-15T00:45:49;4.20;99.90
57218;DHT22;43078;52.972;6.482;2023-02-15T00:48:18;4.20;99.90
57218;DHT22;43078;52.972;6.482;2023-02-15T00:51:25;4.10;99.90
57218;DHT22;43078;52.972;6.482;2023-02-15T00:54:00;4.10;99.90
57218;DHT22;43078;52.972;6.482;2023-02-15T00:56:28;4.10;99.90
57218;DHT22;43078;52.972;6.482;2023-02-15T00:59:08;4.10;99.90
57218;DHT22;43078;52.972;6.482;2023-02-15T01:01:34;4.00;99.90
57218;DHT22;43078;52.972;6.482;2023-02-15T01:04:06;4.00;99.90
57218;DHT22;43078;52.972;6.482;2023-02-15T01:06:43;4.00;99.90
57218;DHT22;43078;52.972;6.482;2023-02-15T01:09:19;4.00;99.90
57218;DHT22;43078;52.972;6.482;2023-02-15T01:11:50;4.00;99.90
57218;DHT22;43078;52.972;6.482;2023-02-15T01:14:25;3.90;99.90
57218;DHT22;43078;52.972;6.482;2023-02-15T01:17:03;3.90;99.90
57218;DHT22;43078;52.972;6.482;2023-02-15T01:19:38;3.90;99.90
57218;DHT22;43078;52.972;6.482;2023-02-15T01:22:09;3.90;99.90
57218;DHT22;43078;52.972;6.482;2023-02-15T01:24:45;3.80;99.90
57218;DHT22;43078;52.972;6.482;2023-02-15T01:27:21;3.90;99.90
57218;DHT22;43078;52.972;6.482;2023-02-15T01:30:03;3.80;99.90
57218;DHT22;43078;52.972;6.482;2023-02-15T01:32:33;3.80;99.90
57218;DHT22;43078;52.972;6.482;2023-02-15T01:35:09;3.80;99.90
57218;DHT22;43078;52.972;6.482;2023-02-15T01:37:40;3.80;99.90
57218;DHT22;43078;52.972;6.482;2023-02-15T01:43:10;3.70;99.90
57218;DHT22;43078;52.972;6.482;2023-02-15T01:45:39;3.70;99.90
57218;DHT22;43078;52.972;6.482;2023-02-15T01:48:47;3.70;99.90
57218;DHT22;43078;52.972;6.482;2023-02-15T01:51:16;3.70;99.90
57218;DHT22;43078;52.972;6.482;2023-02-15T01:53:49;3.70;99.90
57218;DHT22;43078;52.972;6.482;2023-02-15T01:56:26;3.70;99.90
57218;DHT22;43078;52.972;6.482;2023-02-15T01:58:56;3.60;99.90
57218;DHT22;43078;52.972;6.482;2023-02-15T02:01:33;3.60;99.90
57218;DHT22;43078;52.972;6.482;2023-02-15T02:04:13;3.60;99.90
57218;DHT22;43078;52.972;6.482;2023-02-15T02:06:41;3.50;99.90
57218;DHT22;43078;52.972;6.482;2023-02-15T02:09:18;3.50;99.90
57218;DHT22;43078;52.972;6.482;2023-02-15T02:11:55;3.50;99.90
57218;DHT22;43078;52.972;6.482;2023-02-15T02:14:27;3.40;99.90
57218;DHT22;43078;52.972;6.482;2023-02-15T02:34:22;3.20;99.90
57218;DHT22;43078;52.972;6.482;2023-02-15T02:37:03;3.20;99.90
57218;DHT22;43078;52.972;6.482;2023-02-15T02:40:10;3.20;99.90
57218;DHT22;43078;52.972;6.482;2023-02-15T02:43:12;3.20;99.90
57218;DHT22;43078;52.972;6.482;2023-02-15T02:46:03;3.20;99.90
57218;DHT22;43078;52.972;6.482;2023-02-15T02:48:33;3.10;99.90
57218;DHT22;43078;52.972;6.482;2023-02-15T02:51:02;3.10;99.90
57218;DHT22;43078;52.972;6.482;2023-02-15T02:53:33;3.10;99.90
57218;DHT22;43078;52.972;6.482;2023-02-15T02:56:12;3.10;99.90
57218;DHT22;43078;52.972;6.482;2023-02-15T02:59:24;3.00;99.90
57218;DHT22;43078;52.972;6.482;2023-02-15T03:02:23;3.00;99.90
57218;DHT22;43078;52.972;6.482;2023-02-15T03:05:09;3.00;99.90
57218;DHT22;43078;52.972;6.482;2023-02-15T03:07:41;2.90;99.90
57218;DHT22;43078;52.972;6.482;2023-02-15T03:10:11;3.00;99.90
57218;DHT22;43078;52.972;6.482;2023-02-15T03:12:49;2.90;99.90
57218;DHT22;43078;52.972;6.482;2023-02-15T03:15:38;2.80;99.90
57218;DHT22;43078;52.972;6.482;2023-02-15T03:18:28;2.90;99.90
57218;DHT22;43078;52.972;6.482;2023-02-15T03:21:01;2.80;99.90
57218;DHT22;43078;52.972;6.482;2023-02-15T03:23:29;2.80;99.90
57218;DHT22;43078;52.972;6.482;2023-02-15T03:25:59;2.80;99.90
57218;DHT22;43078;52.972;6.482;2023-02-15T03:28:31;2.80;99.90
57218;DHT22;43078;52.972;6.482;2023-02-15T03:31:05;2.80;99.90
57218;DHT22;43078;52.972;6.482;2023-02-15T03:33:32;2.70;99.90
57218;DHT22;43078;52.972;6.482;2023-02-15T03:36:14;2.70;99.90
57218;DHT22;43078;52.972;6.482;2023-02-15T03:39:11;2.70;99.90
57218;DHT22;43078;52.972;6.482;2023-02-15T03:41:58;2.70;99.90
57218;DHT22;43078;52.972;6.482;2023-02-15T03:44:30;2.60;99.90
57218;DHT22;43078;52.972;6.482;2023-02-15T03:47:06;2.60;99.90
57218;DHT22;43078;52.972;6.482;2023-02-15T03:49:40;2.60;99.90
57218;DHT22;43078;52.972;6.482;2023-02-15T03:52:09;2.60;99.90
57218;DHT22;43078;52.972;6.482;2023-02-15T03:54:36;2.60;99.90
57218;DHT22;43078;52.972;6.482;2023-02-15T04:00:04;2.60;99.90
57218;DHT22;43078;52.972;6.482;2023-02-15T04:05:23;2.50;99.90
57218;DHT22;43078;52.972;6.482;2023-02-15T04:07:48;2.50;99.90
57218;DHT22;43078;52.972;6.482;2023-02-15T04:10:14;2.50;99.90
57218;DHT22;43078;52.972;6.482;2023-02-15T04:12:58;2.50;99.90
57218;DHT22;43078;52.972;6.482;2023-02-15T04:15:24;2.50;99.90
57218;DHT22;43078;52.972;6.482;2023-02-15T04:18:08;2.50;99.90
57218;DHT22;43078;52.972;6.482;2023-02-15T04:20:34;2.50;99.90
57218;DHT22;43078;52.972;6.482;2023-02-15T04:23:18;2.40;99.90
57218;DHT22;43078;52.972;6.482;2023-02-15T04:26:06;2.40;99.90
57218;DHT22;43078;52.972;6.482;2023-02-15T04:28:31;2.50;99.90
57218;DHT22;43078;52.972;6.482;2023-02-15T04:30:57;2.40;99.90
57218;DHT22;43078;52.972;6.482;2023-02-15T04:33:23;2.40;99.90
57218;DHT22;43078;52.972;6.482;2023-02-15T04:35:55;2.40;99.90
57218;DHT22;43078;52.972;6.482;2023-02-15T04:38:24;2.40;99.90
57218;DHT22;43078;52.972;6.482;2023-02-15T04:40:56;2.40;99.90
57218;DHT22;43078;52.972;6.482;2023-02-15T04:43:32;2.40;99.90
57218;DHT22;43078;52.972;6.482;2023-02-15T04:46:07;2.40;99.90
57218;DHT22;43078;52.972;6.482;2023-02-15T04:48:38;2.30;99.90
57218;DHT22;43078;52.972;6.482;2023-02-15T04:51:07;2.40;99.90
57218;DHT22;43078;52.972;6.482;2023-02-15T04:53:39;2.30;99.90
57218;DHT22;43078;52.972;6.482;2023-02-15T04:56:10;2.30;99.90
57218;DHT22;43078;52.972;6.482;2023-02-15T04:58:42;2.30;99.90
57218;DHT22;43078;52.972;6.482;2023-02-15T05:01:10;2.30;99.90
57218;DHT22;43078;52.972;6.482;2023-02-15T05:03:51;2.30;99.90
57218;DHT22;43078;52.972;6.482;2023-02-15T05:06:25;2.30;99.90
57218;DHT22;43078;52.972;6.482;2023-02-15T05:09:00;2.30;99.90
57218;DHT22;43078;52.972;6.482;2023-02-15T05:11:32;2.20;99.90
57218;DHT22;43078;52.972;6.482;2023-02-15T05:14:06;2.20;99.90
57218;DHT22;43078;52.972;6.482;2023-02-15T05:16:32;2.30;99.90
57218;DHT22;43078;52.972;6.482;2023-02-15T05:19:09;2.20;99.90
57218;DHT22;43078;52.972;6.482;2023-02-15T05:21:35;2.20;99.90
57218;DHT22;43078;52.972;6.482;2023-02-15T05:24:00;2.20;99.90
57218;DHT22;43078;52.972;6.482;2023-02-15T05:26:46;2.20;99.90
57218;DHT22;43078;52.972;6.482;2023-02-15T05:29:30;2.20;99.90
57218;DHT22;43078;52.972;6.482;2023-02-15T05:31:55;2.10;99.90
57218;DHT22;43078;52.972;6.482;2023-02-15T05:34:21;2.10;99.90
57218;DHT22;43078;52.972;6.482;2023-02-15T05:36:47;2.10;99.90
57218;DHT22;43078;52.972;6.482;2023-02-15T05:39:12;2.10;99.90
57218;DHT22;43078;52.972;6.482;2023-02-15T05:41:40;2.10;99.90
57218;DHT22;43078;52.972;6.482;2023-02-15T05:44:06;2.10;99.90
57218;DHT22;43078;52.972;6.482;2023-02-15T05:46:31;2.10;99.90
57218;DHT22;43078;52.972;6.482;2023-02-15T05:49:00;2.10;99.90
57218;DHT22;43078;52.972;6.482;2023-02-15T05:51:32;2.10;99.90
57218;DHT22;43078;52.972;6.482;2023-02-15T05:54:03;2.10;99.90
57218;DHT22;43078;52.972;6.482;2023-02-15T05:56:32;2.00;99.90
57218;DHT22;43078;52.972;6.482;2023-02-15T05:58:57;2.00;99.90
57218;DHT22;43078;52.972;6.482;2023-02-15T06:01:26;2.00;99.90
57218;DHT22;43078;52.972;6.482;2023-02-15T06:03:52;2.00;99.90
57218;DHT22;43078;52.972;6.482;2023-02-15T06:06:17;1.90;99.90
57218;DHT22;43078;52.972;6.482;2023-02-15T06:08:46;1.90;99.90
57218;DHT22;43078;52.972;6.482;2023-02-15T06:11:17;2.00;99.90
57218;DHT22;43078;52.972;6.482;2023-02-15T06:13:45;1.90;99.90
57218;DHT22;43078;52.972;6.482;2023-02-15T06:16:23;1.90;99.90
57218;DHT22;43078;52.972;6.482;2023-02-15T06:18:54;1.90;99.90
57218;DHT22;43078;52.972;6.482;2023-02-15T06:21:23;1.90;99.90
57218;DHT22;43078;52.972;6.482;2023-02-15T06:23:56;1.90;99.90
57218;DHT22;43078;52.972;6.482;2023-02-15T06:26:25;1.80;99.90
57218;DHT22;43078;52.972;6.482;2023-02-15T06:29:00;1.90;99.90
57218;DHT22;43078;52.972;6.482;2023-02-15T06:31:32;1.80;99.90
57218;DHT22;43078;52.972;6.482;2023-02-15T06:34:00;1.90;99.90
57218;DHT22;43078;52.972;6.482;2023-02-15T06:36:33;1.80;99.90
57218;DHT22;43078;52.972;6.482;2023-02-15T06:39:07;1.80;99.90
57218;DHT22;43078;52.972;6.482;2023-02-15T06:41:45;1.80;99.90
57218;DHT22;43078;52.972;6.482;2023-02-15T06:44:13;1.80;99.90
57218;DHT22;43078;52.972;6.482;2023-02-15T06:46:48;1.70;99.90
57218;DHT22;43078;52.972;6.482;2023-02-15T06:49:22;1.80;99.90
57218;DHT22;43078;52.972;6.482;2023-02-15T06:52:00;1.80;99.90
57218;DHT22;43078;52.972;6.482;2023-02-15T06:54:32;1.80;99.90
57218;DHT22;43078;52.972;6.482;2023-02-15T06:57:01;1.70;99.90
57218;DHT22;43078;52.972;6.482;2023-02-15T06:59:32;1.80;99.90
57218;DHT22;43078;52.972;6.482;2023-02-15T07:02:10;1.80;99.90
57218;DHT22;43078;52.972;6.482;2023-02-15T07:04:39;1.70;99.90
57218;DHT22;43078;52.972;6.482;2023-02-15T07:07:14;1.70;99.90
57218;DHT22;43078;52.972;6.482;2023-02-15T07:09:46;1.70;99.90
57218;DHT22;43078;52.972;6.482;2023-02-15T07:12:15;1.70;99.90
57218;DHT22;43078;52.972;6.482;2023-02-15T07:14:59;1.70;99.90
57218;DHT22;43078;52.972;6.482;2023-02-15T07:17:26;1.70;99.90
57218;DHT22;43078;52.972;6.482;2023-02-15T07:20:07;1.70;99.90
57218;DHT22;43078;52.972;6.482;2023-02-15T07:22:34;1.70;99.90
57218;DHT22;43078;52.972;6.482;2023-02-15T07:25:02;1.70;99.90
57218;DHT22;43078;52.972;6.482;2023-02-15T07:27:35;1.70;99.90
57218;DHT22;43078;52.972;6.482;2023-02-15T07:30:01;1.60;99.90
57218;DHT22;43078;52.972;6.482;2023-02-15T07:32:29;1.70;99.90
57218;DHT22;43078;52.972;6.482;2023-02-15T07:34:55;1.70;99.90
57218;DHT22;43078;52.972;6.482;2023-02-15T07:37:21;1.60;99.90
57218;DHT22;43078;52.972;6.482;2023-02-15T07:39:47;1.60;99.90
57218;DHT22;43078;52.972;6.482;2023-02-15T07:42:13;1.60;99.90
57218;DHT22;43078;52.972;6.482;2023-02-15T07:44:38;1.60;99.90
57218;DHT22;43078;52.972;6.482;2023-02-15T07:47:04;1.60;99.90
57218;DHT22;43078;52.972;6.482;2023-02-15T07:49:30;1.60;99.90
57218;DHT22;43078;52.972;6.482;2023-02-15T07:51:55;1.60;99.90
57218;DHT22;43078;52.972;6.482;2023-02-15T07:54:21;1.60;99.90
57218;DHT22;43078;52.972;6.482;2023-02-15T07:56:46;1.60;99.90
57218;DHT22;43078;52.972;6.482;2023-02-15T07:59:12;1.60;99.90
57218;DHT22;43078;52.972;6.482;2023-02-15T08:01:38;1.60;99.90
57218;DHT22;43078;52.972;6.482;2023-02-15T08:04:06;1.60;99.90
57218;DHT22;43078;52.972;6.482;2023-02-15T08:06:34;1.60;99.90
57218;DHT22;43078;52.972;6.482;2023-02-15T08:09:02;1.60;99.90
57218;DHT22;43078;52.972;6.482;2023-02-15T08:11:31;1.60;99.90
57218;DHT22;43078;52.972;6.482;2023-02-15T08:14:13;1.60;99.90
57218;DHT22;43078;52.972;6.482;2023-02-15T08:16:40;1.70;99.90
57218;DHT22;43078;52.972;6.482;2023-02-15T08:19:07;1.70;99.90
57218;DHT22;43078;52.972;6.482;2023-02-15T08:21:35;1.70;99.90
57218;DHT22;43078;52.972;6.482;2023-02-15T08:24:02;1.70;99.90
57218;DHT22;43078;52.972;6.482;2023-02-15T08:26:29;1.70;99.90
57218;DHT22;43078;52.972;6.482;2023-02-15T08:28:55;1.70;99.90
57218;DHT22;43078;52.972;6.482;2023-02-15T08:31:21;1.80;99.90
57218;DHT22;43078;52.972;6.482;2023-02-15T08:33:48;1.80;99.90
57218;DHT22;43078;52.972;6.482;2023-02-15T08:36:16;1.80;99.90
57218;DHT22;43078;52.972;6.482;2023-02-15T08:38:45;1.80;99.90
57218;DHT22;43078;52.972;6.482;2023-02-15T08:43:37;1.90;99.90
57218;DHT22;43078;52.972;6.482;2023-02-15T08:46:04;1.90;99.90
57218;DHT22;43078;52.972;6.482;2023-02-15T08:48:30;2.00;99.90
57218;DHT22;43078;52.972;6.482;2023-02-15T08:50:55;2.00;99.90
57218;DHT22;43078;52.972;6.482;2023-02-15T08:53:21;2.10;99.90
57218;DHT22;43078;52.972;6.482;2023-02-15T08:55:54;2.10;99.90
57218;DHT22;43078;52.972;6.482;2023-02-15T08:58:20;2.20;99.90
57218;DHT22;43078;52.972;6.482;2023-02-15T09:00:45;2.30;99.90
57218;DHT22;43078;52.972;6.482;2023-02-15T09:03:11;2.30;99.90
57218;DHT22;43078;52.972;6.482;2023-02-15T09:05:36;2.40;99.90
57218;DHT22;43078;52.972;6.482;2023-02-15T09:08:02;2.50;99.90
57218;DHT22;43078;52.972;6.482;2023-02-15T09:10:28;2.50;99.90
57218;DHT22;43078;52.972;6.482;2023-02-15T09:12:53;2.50;99.90
57218;DHT22;43078;52.972;6.482;2023-02-15T09:15:19;2.60;99.90
57218;DHT22;43078;52.972;6.482;2023-02-15T09:17:44;2.70;99.90
57218;DHT22;43078;52.972;6.482;2023-02-15T09:20:10;2.70;99.90
57218;DHT22;43078;52.972;6.482;2023-02-15T09:22:36;2.80;99.90
57218;DHT22;43078;52.972;6.482;2023-02-15T09:25:01;2.80;99.90
57218;DHT22;43078;52.972;6.482;2023-02-15T09:27:27;2.90;99.90
57218;DHT22;43078;52.972;6.482;2023-02-15T09:29:52;3.00;99.90
57218;DHT22;43078;52.972;6.482;2023-02-15T09:32:18;3.10;99.90
57218;DHT22;43078;52.972;6.482;2023-02-15T09:34:43;3.10;99.90
57218;DHT22;43078;52.972;6.482;2023-02-15T09:37:09;3.20;99.90
57218;DHT22;43078;52.972;6.482;2023-02-15T09:39:37;3.20;99.90
57218;DHT22;43078;52.972;6.482;2023-02-15T09:42:11;3.30;99.90
57218;DHT22;43078;52.972;6.482;2023-02-15T09:50:19;3.60;99.90
57218;DHT22;43078;52.972;6.482;2023-02-15T10:01:30;3.90;99.90
57218;DHT22;43078;52.972;6.482;2023-02-15T10:06:48;4.10;99.90
57218;DHT22;43078;52.972;6.482;2023-02-15T10:17:56;4.40;99.90
57218;DHT22;43078;52.972;6.482;2023-02-15T10:20:35;4.50;99.90
57218;DHT22;43078;52.972;6.482;2023-02-15T10:25:47;4.70;99.90
57218;DHT22;43078;52.972;6.482;2023-02-15T10:28:18;4.80;99.90
57218;DHT22;43078;52.972;6.482;2023-02-15T10:30:56;4.90;99.90
57218;DHT22;43078;52.972;6.482;2023-02-15T10:39:21;5.20;99.90
57218;DHT22;43078;52.972;6.482;2023-02-15T10:47:26;5.50;99.90
57218;DHT22;43078;52.972;6.482;2023-02-15T11:07:02;6.20;99.90
57218;DHT22;43078;52.972;6.482;2023-02-15T11:09:37;6.30;99.90
57218;DHT22;43078;52.972;6.482;2023-02-15T11:12:14;6.40;99.90
57218;DHT22;43078;52.972;6.482;2023-02-15T11:17:27;6.60;99.90
57218;DHT22;43078;52.972;6.482;2023-02-15T11:20:24;6.70;99.90
57218;DHT22;43078;52.972;6.482;2023-02-15T11:22:51;6.80;99.90
57218;DHT22;43078;52.972;6.482;2023-02-15T11:25:38;6.90;99.90
57218;DHT22;43078;52.972;6.482;2023-02-15T11:28:15;7.00;99.90
57218;DHT22;43078;52.972;6.482;2023-02-15T11:30:43;7.10;99.90
57218;DHT22;43078;52.972;6.482;2023-02-15T11:33:18;7.30;99.90
57218;DHT22;43078;52.972;6.482;2023-02-15T11:35:55;7.30;99.90
57218;DHT22;43078;52.972;6.482;2023-02-15T11:38:26;7.40;99.90
57218;DHT22;43078;52.972;6.482;2023-02-15T11:41:08;7.50;99.90
57218;DHT22;43078;52.972;6.482;2023-02-15T11:46:08;7.60;99.90
57218;DHT22;43078;52.972;6.482;2023-02-15T11:48:36;7.70;99.90
57218;DHT22;43078;52.972;6.482;2023-02-15T11:51:02;7.80;99.90
57218;DHT22;43078;52.972;6.482;2023-02-15T11:53:32;7.90;99.90
57218;DHT22;43078;52.972;6.482;2023-02-15T11:55:59;8.00;99.90
57218;DHT22;43078;52.972;6.482;2023-02-15T12:01:07;8.10;99.90
57218;DHT22;43078;52.972;6.482;2023-02-15T12:06:16;8.30;99.90
57218;DHT22;43078;52.972;6.482;2023-02-15T12:08:48;8.50;99.90
57218;DHT22;43078;52.972;6.482;2023-02-15T12:11:20;8.50;99.90
57218;DHT22;43078;52.972;6.482;2023-02-15T12:14:03;8.70;99.90
57218;DHT22;43078;52.972;6.482;2023-02-15T12:16:33;8.70;99.90
57218;DHT22;43078;52.972;6.482;2023-02-15T12:19:01;8.80;99.90
57218;DHT22;43078;52.972;6.482;2023-02-15T12:21:35;8.90;99.90
57218;DHT22;43078;52.972;6.482;2023-02-15T12:24:27;9.00;99.90
57218;DHT22;43078;52.972;6.482;2023-02-15T12:29:39;9.10;99.90
57218;DHT22;43078;52.972;6.482;2023-02-15T12:32:05;9.10;99.90
57218;DHT22;43078;52.972;6.482;2023-02-15T12:34:38;9.20;99.90
57218;DHT22;43078;52.972;6.482;2023-02-15T12:37:21;9.20;99.90
57218;DHT22;43078;52.972;6.482;2023-02-15T12:39:57;9.30;99.90
57218;DHT22;43078;52.972;6.482;2023-02-15T12:42:27;9.40;99.90
57218;DHT22;43078;52.972;6.482;2023-02-15T12:45:21;9.40;99.90
57218;DHT22;43078;52.972;6.482;2023-02-15T12:47:49;9.50;99.90
57218;DHT22;43078;52.972;6.482;2023-02-15T12:50:32;9.60;99.90
57218;DHT22;43078;52.972;6.482;2023-02-15T12:53:11;9.60;99.90
57218;DHT22;43078;52.972;6.482;2023-02-15T12:55:38;9.60;99.90
57218;DHT22;43078;52.972;6.482;2023-02-15T12:58:20;9.70;99.90
57218;DHT22;43078;52.972;6.482;2023-02-15T13:00:47;9.70;99.90
57218;DHT22;43078;52.972;6.482;2023-02-15T13:03:21;9.80;99.90
57218;DHT22;43078;52.972;6.482;2023-02-15T13:05:55;9.80;99.90
57218;DHT22;43078;52.972;6.482;2023-02-15T13:08:27;9.90;99.60
57218;DHT22;43078;52.972;6.482;2023-02-15T13:13:30;10.00;99.60
57218;DHT22;43078;52.972;6.482;2023-02-15T13:15:59;10.00;99.40
57218;DHT22;43078;52.972;6.482;2023-02-15T13:18:46;10.10;99.40
57218;DHT22;43078;52.972;6.482;2023-02-15T13:21:26;10.10;99.00
57218;DHT22;43078;52.972;6.482;2023-02-15T13:24:27;10.10;99.40
57218;DHT22;43078;52.972;6.482;2023-02-15T13:26:52;10.20;99.10
57218;DHT22;43078;52.972;6.482;2023-02-15T13:29:25;10.20;99.30
57218;DHT22;43078;52.972;6.482;2023-02-15T13:31:54;10.20;99.30
57218;DHT22;43078;52.972;6.482;2023-02-15T13:39:41;10.20;99.00
57218;DHT22;43078;52.972;6.482;2023-02-15T13:42:31;10.20;99.00
57218;DHT22;43078;52.972;6.482;2023-02-15T13:53:51;10.20;98.50
57218;DHT22;43078;52.972;6.482;2023-02-15T13:59:20;10.30;98.80
57218;DHT22;43078;52.972;6.482;2023-02-15T14:07:49;10.30;98.60
57218;DHT22;43078;52.972;6.482;2023-02-15T14:11:01;10.30;98.40
57218;DHT22;43078;52.972;6.482;2023-02-15T14:13:49;10.30;98.20
57218;DHT22;43078;52.972;6.482;2023-02-15T14:19:25;10.40;98.20
57218;DHT22;43078;52.972;6.482;2023-02-15T14:21:59;10.40;97.90
57218;DHT22;43078;52.972;6.482;2023-02-15T14:27:16;10.40;97.60
57218;DHT22;43078;52.972;6.482;2023-02-15T14:29:59;10.40;97.40
57218;DHT22;43078;52.972;6.482;2023-02-15T14:32:34;10.40;97.20
57218;DHT22;43078;52.972;6.482;2023-02-15T14:35:04;10.40;97.20
57218;DHT22;43078;52.972;6.482;2023-02-15T14:37:58;10.40;97.20
57218;DHT22;43078;52.972;6.482;2023-02-15T14:48:48;10.50;97.30
57218;DHT22;43078;52.972;6.482;2023-02-15T14:54:09;10.50;97.20
57218;DHT22;43078;52.972;6.482;2023-02-15T14:56:36;10.40;97.20
57218;DHT22;43078;52.972;6.482;2023-02-15T15:01:43;10.50;96.60
57218;DHT22;43078;52.972;6.482;2023-02-15T15:04:29;10.40;96.80
57218;DHT22;43078;52.972;6.482;2023-02-15T15:07:19;10.40;96.60
57218;DHT22;43078;52.972;6.482;2023-02-15T15:09:57;10.40;96.60
57218;DHT22;43078;52.972;6.482;2023-02-15T15:18:08;10.40;96.80
57218;DHT22;43078;52.972;6.482;2023-02-15T15:31:04;10.40;96.60
57218;DHT22;43078;52.972;6.482;2023-02-15T15:56:36;10.20;98.00
57218;DHT22;43078;52.972;6.482;2023-02-15T15:59:26;10.30;98.50
57218;DHT22;43078;52.972;6.482;2023-02-15T16:02:10;10.20;98.00
57218;DHT22;43078;52.972;6.482;2023-02-15T16:04:37;10.20;98.40
57218;DHT22;43078;52.972;6.482;2023-02-15T16:12:54;10.20;98.30
57218;DHT22;43078;52.972;6.482;2023-02-15T16:15:44;10.20;98.80
57218;DHT22;43078;52.972;6.482;2023-02-15T16:18:25;10.20;99.10
57218;DHT22;43078;52.972;6.482;2023-02-15T16:21:03;10.10;99.20
57218;DHT22;43078;52.972;6.482;2023-02-15T16:24:08;10.10;98.90
57218;DHT22;43078;52.972;6.482;2023-02-15T16:26:40;10.10;98.80
57218;DHT22;43078;52.972;6.482;2023-02-15T16:29:17;10.00;99.00
57218;DHT22;43078;52.972;6.482;2023-02-15T16:32:00;10.00;99.40
57218;DHT22;43078;52.972;6.482;2023-02-15T16:34:25;10.00;99.10
57218;DHT22;43078;52.972;6.482;2023-02-15T16:37:16;9.90;98.70
57218;DHT22;43078;52.972;6.482;2023-02-15T16:39:42;9.90;98.50
57218;DHT22;43078;52.972;6.482;2023-02-15T16:42:09;9.90;98.70
57218;DHT22;43078;52.972;6.482;2023-02-15T16:44:35;9.90;99.10
57218;DHT22;43078;52.972;6.482;2023-02-15T16:47:01;9.90;99.60
57218;DHT22;43078;52.972;6.482;2023-02-15T16:49:28;9.80;99.80
57218;DHT22;43078;52.972;6.482;2023-02-15T16:52:00;9.80;99.90
57218;DHT22;43078;52.972;6.482;2023-02-15T16:54:27;9.80;99.90
57218;DHT22;43078;52.972;6.482;2023-02-15T16:56:54;9.80;99.80
57218;DHT22;43078;52.972;6.482;2023-02-15T16:59:34;9.80;99.90
57218;DHT22;43078;52.972;6.482;2023-02-15T17:02:04;9.70;99.90
57218;DHT22;43078;52.972;6.482;2023-02-15T17:04:31;9.70;99.90
57218;DHT22;43078;52.972;6.482;2023-02-15T17:07:00;9.60;99.90
57218;DHT22;43078;52.972;6.482;2023-02-15T17:09:26;9.60;99.90
57218;DHT22;43078;52.972;6.482;2023-02-15T17:11:51;9.50;99.90
57218;DHT22;43078;52.972;6.482;2023-02-15T17:14:26;9.50;99.90
57218;DHT22;43078;52.972;6.482;2023-02-15T17:17:14;9.50;99.70
57218;DHT22;43078;52.972;6.482;2023-02-15T17:19:48;9.40;99.20
57218;DHT22;43078;52.972;6.482;2023-02-15T17:22:24;9.40;99.50
57218;DHT22;43078;52.972;6.482;2023-02-15T17:24:59;9.40;99.90
57218;DHT22;43078;52.972;6.482;2023-02-15T17:27:27;9.40;99.90
57218;DHT22;43078;52.972;6.482;2023-02-15T17:30:02;9.40;99.90
57218;DHT22;43078;52.972;6.482;2023-02-15T17:32:30;9.30;99.90
57218;DHT22;43078;52.972;6.482;2023-02-15T17:40:25;9.20;99.90
57218;DHT22;43078;52.972;6.482;2023-02-15T17:42:51;9.10;99.90
57218;DHT22;43078;52.972;6.482;2023-02-15T17:45:18;9.10;99.90
57218;DHT22;43078;52.972;6.482;2023-02-15T17:47:46;9.10;99.90
57218;DHT22;43078;52.972;6.482;2023-02-15T17:50:20;9.10;99.90
57218;DHT22;43078;52.972;6.482;2023-02-15T17:52:46;9.10;99.90
57218;DHT22;43078;52.972;6.482;2023-02-15T17:55:14;9.10;99.90
57218;DHT22;43078;52.972;6.482;2023-02-15T17:58:00;9.10;99.90
57218;DHT22;43078;52.972;6.482;2023-02-15T18:00:26;9.00;99.90
57218;DHT22;43078;52.972;6.482;2023-02-15T18:03:11;9.00;99.90
57218;DHT22;43078;52.972;6.482;2023-02-15T18:05:56;9.00;99.90
57218;DHT22;43078;52.972;6.482;2023-02-15T18:08:41;9.00;99.90
57218;DHT22;43078;52.972;6.482;2023-02-15T18:11:25;8.90;99.90
57218;DHT22;43078;52.972;6.482;2023-02-15T18:14:07;8.90;99.90
57218;DHT22;43078;52.972;6.482;2023-02-15T18:16:36;8.90;99.90
57218;DHT22;43078;52.972;6.482;2023-02-15T18:19:04;8.90;99.90
57218;DHT22;43078;52.972;6.482;2023-02-15T18:21:31;8.80;99.90
57218;DHT22;43078;52.972;6.482;2023-02-15T18:23:57;8.80;99.90
57218;DHT22;43078;52.972;6.482;2023-02-15T18:26:24;8.80;99.90
57218;DHT22;43078;52.972;6.482;2023-02-15T18:28:50;8.80;99.90
57218;DHT22;43078;52.972;6.482;2023-02-15T18:31:17;8.80;99.90
57218;DHT22;43078;52.972;6.482;2023-02-15T18:33:49;8.80;99.90
57218;DHT22;43078;52.972;6.482;2023-02-15T18:36:41;8.70;99.90
57218;DHT22;43078;52.972;6.482;2023-02-15T18:39:22;8.60;99.90
57218;DHT22;43078;52.972;6.482;2023-02-15T18:41:48;8.60;99.90
57218;DHT22;43078;52.972;6.482;2023-02-15T18:44:13;8.60;99.90
57218;DHT22;43078;52.972;6.482;2023-02-15T18:46:39;8.60;99.90
57218;DHT22;43078;52.972;6.482;2023-02-15T18:49:05;8.50;99.90
57218;DHT22;43078;52.972;6.482;2023-02-15T18:51:30;8.50;99.90
57218;DHT22;43078;52.972;6.482;2023-02-15T18:53:57;8.40;99.90
57218;DHT22;43078;52.972;6.482;2023-02-15T18:56:23;8.40;99.90
57218;DHT22;43078;52.972;6.482;2023-02-15T18:58:49;8.40;99.90
57218;DHT22;43078;52.972;6.482;2023-02-15T19:01:18;8.40;99.90
57218;DHT22;43078;52.972;6.482;2023-02-15T19:03:49;8.30;99.90
57218;DHT22;43078;52.972;6.482;2023-02-15T19:06:18;8.30;99.90
57218;DHT22;43078;52.972;6.482;2023-02-15T19:08:45;8.20;99.90
57218;DHT22;43078;52.972;6.482;2023-02-15T19:11:20;8.20;99.90
57218;DHT22;43078;52.972;6.482;2023-02-15T19:13:48;8.20;99.90
57218;DHT22;43078;52.972;6.482;2023-02-15T19:16:29;8.10;99.90
57218;DHT22;43078;52.972;6.482;2023-02-15T19:18:56;8.10;99.90
57218;DHT22;43078;52.972;6.482;2023-02-15T19:21:22;8.10;99.90
57218;DHT22;43078;52.972;6.482;2023-02-15T19:23:57;8.10;99.90
57218;DHT22;43078;52.972;6.482;2023-02-15T19:26:24;8.00;99.90
57218;DHT22;43078;52.972;6.482;2023-02-15T19:28:50;8.00;99.90
57218;DHT22;43078;52.972;6.482;2023-02-15T19:31:16;7.90;99.90
57218;DHT22;43078;52.972;6.482;2023-02-15T19:33:42;7.90;99.90
57218;DHT22;43078;52.972;6.482;2023-02-15T19:36:14;7.90;99.90